sensor_id;sensor_type;location;lat;lon;timestamp;P1;durP1;ratioP1;P2;durP2;ratioP2
1128;SDS011;553;51.038;7.216;2024-03-22T00:00:39;40.80;;;23.60;;
1128;SDS011;553;51.038;7.216;2024-03-22T00:03:05;39.93;;;22.70;;
1128;SDS011;553;51.038;7.216;2024-03-22T00:05:31;48.87;;;24.20;;
1128;SDS011;553;51.038;7.216;2024-03-22T00:07:57;42.40;;;23.47;;
1128;SDS011;553;51.038;7.216;2024-03-22T00:10:23;44.23;;;24.17;;
1128;SDS011;553;51.038;7.216;2024-03-22T00:12:49;39.93;;;21.63;;
1128;SDS011;553;51.038;7.216;2024-03-22T00:15:15;36.70;;;19.70;;
1128;SDS011;553;51.038;7.216;2024-03-22T00:17:42;49.80;;;25.73;;
1128;SDS011;553;51.038;7.216;2024-03-22T00:20:08;43.00;;;24.00;;
1128;SDS011;553;51.038;7.216;2024-03-22T00:22:34;45.67;;;24.37;;
1128;SDS011;553;51.038;7.216;2024-03-22T00:25:00;40.50;;;22.10;;
1128;SDS011;553;51.038;7.216;2024-03-22T00:27:26;46.03;;;24.37;;
1128;SDS011;553;51.038;7.216;2024-03-22T00:29:52;42.53;;;23.27;;
1128;SDS011;553;51.038;7.216;2024-03-22T00:32:18;46.17;;;25.47;;
1128;SDS011;553;51.038;7.216;2024-03-22T00:34:43;45.93;;;22.87;;
1128;SDS011;553;51.038;7.216;2024-03-22T00:37:10;44.80;;;23.40;;
1128;SDS011;553;51.038;7.216;2024-03-22T00:39:36;49.83;;;27.00;;
1128;SDS011;553;51.038;7.216;2024-03-22T00:42:02;52.40;;;25.07;;
1128;SDS011;553;51.038;7.216;2024-03-22T00:44:28;42.83;;;25.57;;
1128;SDS011;553;51.038;7.216;2024-03-22T00:46:54;40.33;;;24.10;;
1128;SDS011;553;51.038;7.216;2024-03-22T00:49:20;44.03;;;24.50;;
1128;SDS011;553;51.038;7.216;2024-03-22T00:51:45;47.07;;;25.73;;
1128;SDS011;553;51.038;7.216;2024-03-22T00:54:12;47.53;;;23.07;;
1128;SDS011;553;51.038;7.216;2024-03-22T00:56:38;43.77;;;22.53;;
1128;SDS011;553;51.038;7.216;2024-03-22T00:59:04;48.17;;;24.60;;
1128;SDS011;553;51.038;7.216;2024-03-22T01:01:30;45.13;;;24.47;;
1128;SDS011;553;51.038;7.216;2024-03-22T01:03:56;40.63;;;22.97;;
1128;SDS011;553;51.038;7.216;2024-03-22T01:06:22;41.63;;;23.60;;
1128;SDS011;553;51.038;7.216;2024-03-22T01:08:50;42.53;;;22.60;;
1128;SDS011;553;51.038;7.216;2024-03-22T01:11:17;43.97;;;22.70;;
1128;SDS011;553;51.038;7.216;2024-03-22T01:13:43;43.53;;;23.07;;
1128;SDS011;553;51.038;7.216;2024-03-22T01:16:09;42.37;;;24.53;;
1128;SDS011;553;51.038;7.216;2024-03-22T01:18:35;36.93;;;21.97;;
1128;SDS011;553;51.038;7.216;2024-03-22T01:21:02;40.63;;;23.33;;
1128;SDS011;553;51.038;7.216;2024-03-22T01:23:29;42.73;;;22.70;;
1128;SDS011;553;51.038;7.216;2024-03-22T01:25:55;42.77;;;23.70;;
1128;SDS011;553;51.038;7.216;2024-03-22T01:28:21;37.93;;;20.80;;
1128;SDS011;553;51.038;7.216;2024-03-22T01:30:47;36.30;;;21.80;;
1128;SDS011;553;51.038;7.216;2024-03-22T01:33:13;34.53;;;19.97;;
1128;SDS011;553;51.038;7.216;2024-03-22T01:35:39;34.63;;;21.03;;
1128;SDS011;553;51.038;7.216;2024-03-22T01:38:04;36.63;;;22.10;;
1128;SDS011;553;51.038;7.216;2024-03-22T01:40:30;35.03;;;19.63;;
1128;SDS011;553;51.038;7.216;2024-03-22T01:42:57;40.70;;;21.73;;
1128;SDS011;553;51.038;7.216;2024-03-22T01:45:23;37.30;;;20.83;;
1128;SDS011;553;51.038;7.216;2024-03-22T01:47:52;38.87;;;20.70;;
1128;SDS011;553;51.038;7.216;2024-03-22T01:50:20;35.97;;;20.27;;
1128;SDS011;553;51.038;7.216;2024-03-22T01:52:46;34.03;;;20.20;;
1128;SDS011;553;51.038;7.216;2024-03-22T01:55:13;36.57;;;20.17;;
1128;SDS011;553;51.038;7.216;2024-03-22T01:57:39;35.10;;;19.50;;
1128;SDS011;553;51.038;7.216;2024-03-22T02:00:08;33.50;;;20.10;;
1128;SDS011;553;51.038;7.216;2024-03-22T02:02:39;35.33;;;20.70;;
1128;SDS011;553;51.038;7.216;2024-03-22T02:05:11;35.87;;;21.00;;
1128;SDS011;553;51.038;7.216;2024-03-22T02:07:41;38.37;;;19.60;;
1128;SDS011;553;51.038;7.216;2024-03-22T02:10:08;35.67;;;18.90;;
1128;SDS011;553;51.038;7.216;2024-03-22T02:12:37;35.53;;;18.80;;
1128;SDS011;553;51.038;7.216;2024-03-22T02:15:06;37.07;;;20.03;;
1128;SDS011;553;51.038;7.216;2024-03-22T02:17:33;35.57;;;19.70;;
1128;SDS011;553;51.038;7.216;2024-03-22T02:20:00;31.73;;;18.57;;
1128;SDS011;553;51.038;7.216;2024-03-22T02:22:26;34.43;;;19.47;;
1128;SDS011;553;51.038;7.216;2024-03-22T02:24:52;33.47;;;17.97;;
1128;SDS011;553;51.038;7.216;2024-03-22T02:27:18;36.90;;;19.40;;
1128;SDS011;553;51.038;7.216;2024-03-22T02:29:44;33.33;;;19.43;;
1128;SDS011;553;51.038;7.216;2024-03-22T02:32:10;31.77;;;17.50;;
1128;SDS011;553;51.038;7.216;2024-03-22T02:34:36;31.33;;;17.70;;
1128;SDS011;553;51.038;7.216;2024-03-22T02:37:02;32.90;;;18.77;;
1128;SDS011;553;51.038;7.216;2024-03-22T02:39:28;30.17;;;18.20;;
1128;SDS011;553;51.038;7.216;2024-03-22T02:41:55;38.73;;;19.23;;
1128;SDS011;553;51.038;7.216;2024-03-22T02:44:21;29.17;;;18.00;;
1128;SDS011;553;51.038;7.216;2024-03-22T02:46:47;30.43;;;18.33;;
1128;SDS011;553;51.038;7.216;2024-03-22T02:49:13;33.50;;;18.23;;
1128;SDS011;553;51.038;7.216;2024-03-22T02:51:39;32.10;;;16.53;;
1128;SDS011;553;51.038;7.216;2024-03-22T02:54:05;33.77;;;18.00;;
1128;SDS011;553;51.038;7.216;2024-03-22T02:56:31;28.07;;;17.00;;
1128;SDS011;553;51.038;7.216;2024-03-22T02:58:56;31.53;;;17.50;;
1128;SDS011;553;51.038;7.216;2024-03-22T03:01:22;29.47;;;16.67;;
1128;SDS011;553;51.038;7.216;2024-03-22T03:03:48;29.03;;;16.70;;
1128;SDS011;553;51.038;7.216;2024-03-22T03:06:14;28.93;;;15.50;;
1128;SDS011;553;51.038;7.216;2024-03-22T03:08:41;32.60;;;17.53;;
1128;SDS011;553;51.038;7.216;2024-03-22T03:11:07;29.10;;;15.90;;
1128;SDS011;553;51.038;7.216;2024-03-22T03:13:33;29.23;;;16.07;;
1128;SDS011;553;51.038;7.216;2024-03-22T03:15:59;29.43;;;17.90;;
1128;SDS011;553;51.038;7.216;2024-03-22T03:18:25;27.03;;;16.30;;
1128;SDS011;553;51.038;7.216;2024-03-22T03:20:50;30.30;;;15.77;;
1128;SDS011;553;51.038;7.216;2024-03-22T03:23:16;25.07;;;15.67;;
1128;SDS011;553;51.038;7.216;2024-03-22T03:25:42;29.43;;;17.00;;
1128;SDS011;553;51.038;7.216;2024-03-22T03:28:08;29.10;;;15.77;;
1128;SDS011;553;51.038;7.216;2024-03-22T03:30:34;26.73;;;15.87;;
1128;SDS011;553;51.038;7.216;2024-03-22T03:33:00;25.63;;;14.50;;
1128;SDS011;553;51.038;7.216;2024-03-22T03:35:26;24.07;;;13.57;;
1128;SDS011;553;51.038;7.216;2024-03-22T03:37:52;32.73;;;16.77;;
1128;SDS011;553;51.038;7.216;2024-03-22T03:40:18;27.70;;;16.20;;
1128;SDS011;553;51.038;7.216;2024-03-22T03:42:44;28.07;;;15.50;;
1128;SDS011;553;51.038;7.216;2024-03-22T03:45:10;25.43;;;15.27;;
1128;SDS011;553;51.038;7.216;2024-03-22T03:47:37;30.03;;;14.80;;
1128;SDS011;553;51.038;7.216;2024-03-22T03:50:02;25.50;;;13.93;;
1128;SDS011;553;51.038;7.216;2024-03-22T03:52:28;24.60;;;14.77;;
1128;SDS011;553;51.038;7.216;2024-03-22T03:54:54;25.20;;;13.57;;
1128;SDS011;553;51.038;7.216;2024-03-22T03:57:20;25.67;;;14.67;;
1128;SDS011;553;51.038;7.216;2024-03-22T03:59:46;28.10;;;14.43;;
1128;SDS011;553;51.038;7.216;2024-03-22T04:02:12;24.90;;;14.63;;
1128;SDS011;553;51.038;7.216;2024-03-22T04:04:37;23.27;;;14.00;;
1128;SDS011;553;51.038;7.216;2024-03-22T04:07:04;25.30;;;15.17;;
1128;SDS011;553;51.038;7.216;2024-03-22T04:09:29;26.50;;;13.70;;
1128;SDS011;553;51.038;7.216;2024-03-22T04:11:57;25.80;;;14.40;;
1128;SDS011;553;51.038;7.216;2024-03-22T04:14:27;22.07;;;13.80;;
1128;SDS011;553;51.038;7.216;2024-03-22T04:16:53;26.13;;;14.90;;
1128;SDS011;553;51.038;7.216;2024-03-22T04:19:21;24.90;;;13.10;;
1128;SDS011;553;51.038;7.216;2024-03-22T04:21:48;25.50;;;15.10;;
1128;SDS011;553;51.038;7.216;2024-03-22T04:24:15;23.67;;;14.60;;
1128;SDS011;553;51.038;7.216;2024-03-22T04:26:40;21.77;;;13.00;;
1128;SDS011;553;51.038;7.216;2024-03-22T04:29:06;26.60;;;14.50;;
1128;SDS011;553;51.038;7.216;2024-03-22T04:31:32;21.97;;;12.77;;
1128;SDS011;553;51.038;7.216;2024-03-22T04:33:58;25.10;;;13.40;;
1128;SDS011;553;51.038;7.216;2024-03-22T04:36:24;27.33;;;14.03;;
1128;SDS011;553;51.038;7.216;2024-03-22T04:38:49;25.80;;;14.47;;
1128;SDS011;553;51.038;7.216;2024-03-22T04:41:15;25.23;;;13.57;;
1128;SDS011;553;51.038;7.216;2024-03-22T04:43:41;27.30;;;13.47;;
1128;SDS011;553;51.038;7.216;2024-03-22T04:46:08;19.63;;;11.43;;
1128;SDS011;553;51.038;7.216;2024-03-22T04:48:33;20.17;;;13.37;;
1128;SDS011;553;51.038;7.216;2024-03-22T04:50:59;24.60;;;14.47;;
1128;SDS011;553;51.038;7.216;2024-03-22T04:53:25;25.77;;;12.93;;
1128;SDS011;553;51.038;7.216;2024-03-22T04:55:51;22.93;;;12.30;;
1128;SDS011;553;51.038;7.216;2024-03-22T04:58:18;23.40;;;13.17;;
1128;SDS011;553;51.038;7.216;2024-03-22T05:00:45;21.50;;;11.70;;
1128;SDS011;553;51.038;7.216;2024-03-22T05:03:12;22.83;;;13.07;;
1128;SDS011;553;51.038;7.216;2024-03-22T05:05:38;21.70;;;11.97;;
1128;SDS011;553;51.038;7.216;2024-03-22T05:08:05;29.07;;;13.50;;
1128;SDS011;553;51.038;7.216;2024-03-22T05:10:31;21.77;;;12.40;;
1128;SDS011;553;51.038;7.216;2024-03-22T05:12:57;22.30;;;12.80;;
1128;SDS011;553;51.038;7.216;2024-03-22T05:15:24;21.03;;;12.93;;
1128;SDS011;553;51.038;7.216;2024-03-22T05:17:53;21.27;;;12.97;;
1128;SDS011;553;51.038;7.216;2024-03-22T05:20:22;22.87;;;13.13;;
1128;SDS011;553;51.038;7.216;2024-03-22T05:22:48;21.73;;;13.50;;
1128;SDS011;553;51.038;7.216;2024-03-22T05:25:14;26.63;;;14.10;;
1128;SDS011;553;51.038;7.216;2024-03-22T05:27:40;20.80;;;13.97;;
1128;SDS011;553;51.038;7.216;2024-03-22T05:30:07;24.10;;;13.83;;
1128;SDS011;553;51.038;7.216;2024-03-22T05:32:35;23.17;;;13.60;;
1128;SDS011;553;51.038;7.216;2024-03-22T05:35:00;22.23;;;13.00;;
1128;SDS011;553;51.038;7.216;2024-03-22T05:37:26;25.97;;;15.80;;
1128;SDS011;553;51.038;7.216;2024-03-22T05:39:52;22.30;;;13.93;;
1128;SDS011;553;51.038;7.216;2024-03-22T05:42:18;25.73;;;13.80;;
1128;SDS011;553;51.038;7.216;2024-03-22T05:44:44;20.53;;;13.17;;
1128;SDS011;553;51.038;7.216;2024-03-22T05:47:10;20.90;;;14.00;;
1128;SDS011;553;51.038;7.216;2024-03-22T05:49:36;21.63;;;13.87;;
1128;SDS011;553;51.038;7.216;2024-03-22T05:52:02;30.83;;;14.63;;
1128;SDS011;553;51.038;7.216;2024-03-22T05:54:28;20.87;;;12.73;;
1128;SDS011;553;51.038;7.216;2024-03-22T05:56:54;22.40;;;13.63;;
1128;SDS011;553;51.038;7.216;2024-03-22T05:59:21;25.77;;;14.40;;
1128;SDS011;553;51.038;7.216;2024-03-22T06:01:47;24.53;;;13.13;;
1128;SDS011;553;51.038;7.216;2024-03-22T06:04:12;19.10;;;13.53;;
1128;SDS011;553;51.038;7.216;2024-03-22T06:06:38;23.20;;;13.43;;
1128;SDS011;553;51.038;7.216;2024-03-22T06:09:04;24.73;;;14.80;;
1128;SDS011;553;51.038;7.216;2024-03-22T06:11:34;24.07;;;14.20;;
1128;SDS011;553;51.038;7.216;2024-03-22T06:14:00;22.90;;;13.57;;
1128;SDS011;553;51.038;7.216;2024-03-22T06:16:26;26.20;;;15.83;;
1128;SDS011;553;51.038;7.216;2024-03-22T06:18:53;24.17;;;14.87;;
1128;SDS011;553;51.038;7.216;2024-03-22T06:21:18;23.67;;;15.23;;
1128;SDS011;553;51.038;7.216;2024-03-22T06:23:50;25.60;;;14.37;;
1128;SDS011;553;51.038;7.216;2024-03-22T06:26:16;23.00;;;14.80;;
1128;SDS011;553;51.038;7.216;2024-03-22T06:28:42;26.97;;;16.13;;
1128;SDS011;553;51.038;7.216;2024-03-22T06:31:09;22.00;;;13.80;;
1128;SDS011;553;51.038;7.216;2024-03-22T06:33:34;26.13;;;15.17;;
1128;SDS011;553;51.038;7.216;2024-03-22T06:36:01;25.43;;;14.90;;
1128;SDS011;553;51.038;7.216;2024-03-22T06:38:28;22.10;;;13.30;;
1128;SDS011;553;51.038;7.216;2024-03-22T06:40:54;21.63;;;13.93;;
1128;SDS011;553;51.038;7.216;2024-03-22T06:43:20;20.43;;;12.50;;
1128;SDS011;553;51.038;7.216;2024-03-22T06:45:46;19.07;;;13.80;;
1128;SDS011;553;51.038;7.216;2024-03-22T06:48:13;25.07;;;14.13;;
1128;SDS011;553;51.038;7.216;2024-03-22T06:50:41;22.00;;;13.17;;
1128;SDS011;553;51.038;7.216;2024-03-22T06:53:07;20.27;;;13.70;;
1128;SDS011;553;51.038;7.216;2024-03-22T06:55:33;22.20;;;13.60;;
1128;SDS011;553;51.038;7.216;2024-03-22T06:57:58;23.63;;;14.63;;
1128;SDS011;553;51.038;7.216;2024-03-22T07:00:24;19.37;;;13.60;;
1128;SDS011;553;51.038;7.216;2024-03-22T07:02:50;23.70;;;14.83;;
1128;SDS011;553;51.038;7.216;2024-03-22T07:05:16;22.23;;;13.67;;
1128;SDS011;553;51.038;7.216;2024-03-22T07:07:42;23.67;;;15.13;;
1128;SDS011;553;51.038;7.216;2024-03-22T07:10:08;22.53;;;13.90;;
1128;SDS011;553;51.038;7.216;2024-03-22T07:12:34;20.73;;;13.00;;
1128;SDS011;553;51.038;7.216;2024-03-22T07:15:00;22.77;;;13.60;;
1128;SDS011;553;51.038;7.216;2024-03-22T07:17:28;26.33;;;15.00;;
1128;SDS011;553;51.038;7.216;2024-03-22T07:19:54;18.50;;;12.67;;
1128;SDS011;553;51.038;7.216;2024-03-22T07:22:21;26.30;;;14.87;;
1128;SDS011;553;51.038;7.216;2024-03-22T07:24:48;24.43;;;14.20;;
1128;SDS011;553;51.038;7.216;2024-03-22T07:27:14;23.13;;;14.80;;
1128;SDS011;553;51.038;7.216;2024-03-22T07:29:40;22.70;;;13.63;;
1128;SDS011;553;51.038;7.216;2024-03-22T07:32:07;17.00;;;12.80;;
1128;SDS011;553;51.038;7.216;2024-03-22T07:34:32;22.40;;;15.10;;
1128;SDS011;553;51.038;7.216;2024-03-22T07:36:58;22.60;;;13.30;;
1128;SDS011;553;51.038;7.216;2024-03-22T07:39:24;19.53;;;13.60;;
1128;SDS011;553;51.038;7.216;2024-03-22T07:41:50;25.90;;;15.07;;
1128;SDS011;553;51.038;7.216;2024-03-22T07:44:16;21.93;;;13.67;;
1128;SDS011;553;51.038;7.216;2024-03-22T07:46:45;21.73;;;14.43;;
1128;SDS011;553;51.038;7.216;2024-03-22T07:49:12;20.67;;;14.70;;
1128;SDS011;553;51.038;7.216;2024-03-22T07:51:38;23.50;;;14.60;;
1128;SDS011;553;51.038;7.216;2024-03-22T07:54:04;19.43;;;13.30;;
1128;SDS011;553;51.038;7.216;2024-03-22T07:56:31;22.20;;;14.80;;
1128;SDS011;553;51.038;7.216;2024-03-22T07:58:57;24.53;;;15.87;;
1128;SDS011;553;51.038;7.216;2024-03-22T08:01:23;23.30;;;14.77;;
1128;SDS011;553;51.038;7.216;2024-03-22T08:03:49;22.27;;;14.50;;
1128;SDS011;553;51.038;7.216;2024-03-22T08:06:16;21.43;;;14.60;;
1128;SDS011;553;51.038;7.216;2024-03-22T08:08:43;21.90;;;13.20;;
1128;SDS011;553;51.038;7.216;2024-03-22T08:11:09;25.73;;;14.37;;
1128;SDS011;553;51.038;7.216;2024-03-22T08:13:35;22.77;;;15.30;;
1128;SDS011;553;51.038;7.216;2024-03-22T08:16:01;19.70;;;14.00;;
1128;SDS011;553;51.038;7.216;2024-03-22T08:18:26;22.73;;;14.60;;
1128;SDS011;553;51.038;7.216;2024-03-22T08:20:52;23.27;;;15.77;;
1128;SDS011;553;51.038;7.216;2024-03-22T08:23:18;23.13;;;15.63;;
1128;SDS011;553;51.038;7.216;2024-03-22T08:25:45;24.50;;;15.40;;
1128;SDS011;553;51.038;7.216;2024-03-22T08:28:12;23.87;;;14.23;;
1128;SDS011;553;51.038;7.216;2024-03-22T08:30:44;23.20;;;15.17;;
1128;SDS011;553;51.038;7.216;2024-03-22T08:33:10;23.00;;;16.47;;
1128;SDS011;553;51.038;7.216;2024-03-22T08:35:39;22.13;;;14.20;;
1128;SDS011;553;51.038;7.216;2024-03-22T08:38:05;27.63;;;13.87;;
1128;SDS011;553;51.038;7.216;2024-03-22T08:40:38;26.43;;;13.90;;
1128;SDS011;553;51.038;7.216;2024-03-22T08:43:05;21.47;;;14.43;;
1128;SDS011;553;51.038;7.216;2024-03-22T08:45:32;19.53;;;13.80;;
1128;SDS011;553;51.038;7.216;2024-03-22T08:47:59;19.53;;;13.60;;
1128;SDS011;553;51.038;7.216;2024-03-22T08:50:25;22.53;;;13.83;;
1128;SDS011;553;51.038;7.216;2024-03-22T08:52:51;20.57;;;12.83;;
1128;SDS011;553;51.038;7.216;2024-03-22T08:55:16;21.10;;;13.70;;
1128;SDS011;553;51.038;7.216;2024-03-22T08:57:43;18.80;;;12.03;;
1128;SDS011;553;51.038;7.216;2024-03-22T09:00:09;22.30;;;14.33;;
1128;SDS011;553;51.038;7.216;2024-03-22T09:02:36;18.60;;;12.23;;
1128;SDS011;553;51.038;7.216;2024-03-22T09:05:03;19.43;;;12.67;;
1128;SDS011;553;51.038;7.216;2024-03-22T09:07:30;18.60;;;12.60;;
1128;SDS011;553;51.038;7.216;2024-03-22T09:09:55;17.83;;;13.20;;
1128;SDS011;553;51.038;7.216;2024-03-22T09:12:21;20.30;;;12.10;;
1128;SDS011;553;51.038;7.216;2024-03-22T09:14:47;20.57;;;12.67;;
1128;SDS011;553;51.038;7.216;2024-03-22T09:17:13;17.70;;;12.90;;
1128;SDS011;553;51.038;7.216;2024-03-22T09:19:39;16.90;;;11.63;;
1128;SDS011;553;51.038;7.216;2024-03-22T09:22:04;17.97;;;12.13;;
1128;SDS011;553;51.038;7.216;2024-03-22T09:24:31;17.20;;;10.77;;
1128;SDS011;553;51.038;7.216;2024-03-22T09:26:56;19.43;;;10.13;;
1128;SDS011;553;51.038;7.216;2024-03-22T09:29:24;17.30;;;10.87;;
1128;SDS011;553;51.038;7.216;2024-03-22T09:31:49;15.40;;;9.40;;
1128;SDS011;553;51.038;7.216;2024-03-22T09:34:18;12.27;;;8.90;;
1128;SDS011;553;51.038;7.216;2024-03-22T09:36:45;14.10;;;8.10;;
1128;SDS011;553;51.038;7.216;2024-03-22T09:39:11;10.07;;;8.10;;
1128;SDS011;553;51.038;7.216;2024-03-22T09:41:40;11.70;;;8.10;;
1128;SDS011;553;51.038;7.216;2024-03-22T09:44:08;14.20;;;8.17;;
1128;SDS011;553;51.038;7.216;2024-03-22T09:46:43;10.77;;;7.80;;
1128;SDS011;553;51.038;7.216;2024-03-22T09:49:11;11.73;;;6.73;;
1128;SDS011;553;51.038;7.216;2024-03-22T09:51:38;8.93;;;6.73;;
1128;SDS011;553;51.038;7.216;2024-03-22T09:54:05;11.63;;;6.73;;
1128;SDS011;553;51.038;7.216;2024-03-22T09:56:31;13.17;;;7.87;;
1128;SDS011;553;51.038;7.216;2024-03-22T09:58:57;14.20;;;7.13;;
1128;SDS011;553;51.038;7.216;2024-03-22T10:01:23;11.67;;;6.57;;
1128;SDS011;553;51.038;7.216;2024-03-22T10:03:53;12.03;;;7.20;;
1128;SDS011;553;51.038;7.216;2024-03-22T10:06:20;11.97;;;7.20;;
1128;SDS011;553;51.038;7.216;2024-03-22T10:08:46;10.37;;;5.80;;
1128;SDS011;553;51.038;7.216;2024-03-22T10:11:12;7.90;;;6.20;;
1128;SDS011;553;51.038;7.216;2024-03-22T10:13:38;8.03;;;5.93;;
1128;SDS011;553;51.038;7.216;2024-03-22T10:16:04;9.87;;;6.20;;
1128;SDS011;553;51.038;7.216;2024-03-22T10:18:34;10.90;;;5.13;;
1128;SDS011;553;51.038;7.216;2024-03-22T10:21:00;7.17;;;4.90;;
1128;SDS011;553;51.038;7.216;2024-03-22T10:23:30;7.73;;;5.60;;
1128;SDS011;553;51.038;7.216;2024-03-22T10:25:57;9.40;;;5.53;;
1128;SDS011;553;51.038;7.216;2024-03-22T10:28:24;9.67;;;5.33;;
1128;SDS011;553;51.038;7.216;2024-03-22T10:30:50;9.20;;;5.23;;
1128;SDS011;553;51.038;7.216;2024-03-22T10:33:19;8.87;;;5.20;;
1128;SDS011;553;51.038;7.216;2024-03-22T10:35:49;9.60;;;5.63;;
1128;SDS011;553;51.038;7.216;2024-03-22T10:38:20;8.93;;;6.10;;
1128;SDS011;553;51.038;7.216;2024-03-22T10:40:47;11.50;;;5.57;;
1128;SDS011;553;51.038;7.216;2024-03-22T10:43:16;11.30;;;6.30;;
1128;SDS011;553;51.038;7.216;2024-03-22T10:45:42;10.20;;;6.40;;
1128;SDS011;553;51.038;7.216;2024-03-22T10:48:13;11.60;;;5.77;;
1128;SDS011;553;51.038;7.216;2024-03-22T10:50:42;7.97;;;4.70;;
1128;SDS011;553;51.038;7.216;2024-03-22T10:53:16;8.33;;;5.43;;
1128;SDS011;553;51.038;7.216;2024-03-22T10:55:46;14.40;;;6.37;;
1128;SDS011;553;51.038;7.216;2024-03-22T10:58:15;10.10;;;6.87;;
1128;SDS011;553;51.038;7.216;2024-03-22T11:00:42;13.20;;;7.60;;
1128;SDS011;553;51.038;7.216;2024-03-22T11:03:12;12.20;;;6.37;;
1128;SDS011;553;51.038;7.216;2024-03-22T11:05:48;10.73;;;6.30;;
1128;SDS011;553;51.038;7.216;2024-03-22T11:08:28;9.07;;;6.27;;
1128;SDS011;553;51.038;7.216;2024-03-22T11:10:58;16.37;;;6.30;;
1128;SDS011;553;51.038;7.216;2024-03-22T11:13:38;8.90;;;6.33;;
1128;SDS011;553;51.038;7.216;2024-03-22T11:16:05;9.30;;;5.60;;
1128;SDS011;553;51.038;7.216;2024-03-22T11:18:32;12.63;;;5.97;;
1128;SDS011;553;51.038;7.216;2024-03-22T11:20:59;9.33;;;5.40;;
1128;SDS011;553;51.038;7.216;2024-03-22T11:23:25;12.10;;;6.30;;
1128;SDS011;553;51.038;7.216;2024-03-22T11:25:50;11.83;;;6.90;;
1128;SDS011;553;51.038;7.216;2024-03-22T11:28:16;10.27;;;6.93;;
1128;SDS011;553;51.038;7.216;2024-03-22T11:30:43;8.30;;;5.73;;
1128;SDS011;553;51.038;7.216;2024-03-22T11:33:09;7.70;;;6.00;;
1128;SDS011;553;51.038;7.216;2024-03-22T11:35:35;11.27;;;6.70;;
1128;SDS011;553;51.038;7.216;2024-03-22T11:38:01;11.70;;;7.30;;
1128;SDS011;553;51.038;7.216;2024-03-22T11:40:29;10.97;;;7.60;;
1128;SDS011;553;51.038;7.216;2024-03-22T11:42:56;10.27;;;6.80;;
1128;SDS011;553;51.038;7.216;2024-03-22T11:45:24;12.63;;;7.80;;
1128;SDS011;553;51.038;7.216;2024-03-22T11:47:51;12.50;;;7.70;;
1128;SDS011;553;51.038;7.216;2024-03-22T11:50:17;10.73;;;7.00;;
1128;SDS011;553;51.038;7.216;2024-03-22T11:52:44;12.60;;;7.90;;
1128;SDS011;553;51.038;7.216;2024-03-22T11:55:12;12.17;;;6.80;;
1128;SDS011;553;51.038;7.216;2024-03-22T11:57:39;11.50;;;7.50;;
1128;SDS011;553;51.038;7.216;2024-03-22T12:00:06;14.60;;;8.87;;
1128;SDS011;553;51.038;7.216;2024-03-22T12:02:40;13.70;;;8.87;;
1128;SDS011;553;51.038;7.216;2024-03-22T12:05:07;11.03;;;8.10;;
1128;SDS011;553;51.038;7.216;2024-03-22T12:07:33;11.10;;;5.57;;
1128;SDS011;553;51.038;7.216;2024-03-22T12:09:59;13.63;;;8.43;;
1128;SDS011;553;51.038;7.216;2024-03-22T12:12:25;12.43;;;8.67;;
1128;SDS011;553;51.038;7.216;2024-03-22T12:14:52;16.00;;;9.70;;
1128;SDS011;553;51.038;7.216;2024-03-22T12:17:18;13.57;;;9.13;;
1128;SDS011;553;51.038;7.216;2024-03-22T12:19:44;13.00;;;9.90;;
1128;SDS011;553;51.038;7.216;2024-03-22T12:22:09;12.30;;;8.60;;
1128;SDS011;553;51.038;7.216;2024-03-22T12:24:36;12.10;;;8.00;;
1128;SDS011;553;51.038;7.216;2024-03-22T12:27:02;12.70;;;7.90;;
1128;SDS011;553;51.038;7.216;2024-03-22T12:29:28;12.40;;;9.00;;
1128;SDS011;553;51.038;7.216;2024-03-22T12:31:54;14.20;;;8.27;;
1128;SDS011;553;51.038;7.216;2024-03-22T12:34:20;11.87;;;9.30;;
1128;SDS011;553;51.038;7.216;2024-03-22T12:36:46;13.43;;;9.00;;
1128;SDS011;553;51.038;7.216;2024-03-22T12:39:11;14.60;;;9.70;;
1128;SDS011;553;51.038;7.216;2024-03-22T12:41:37;11.37;;;7.63;;
1128;SDS011;553;51.038;7.216;2024-03-22T12:44:03;16.67;;;9.27;;
1128;SDS011;553;51.038;7.216;2024-03-22T12:46:29;12.77;;;8.80;;
1128;SDS011;553;51.038;7.216;2024-03-22T12:48:55;14.33;;;9.40;;
1128;SDS011;553;51.038;7.216;2024-03-22T12:51:21;17.17;;;9.50;;
1128;SDS011;553;51.038;7.216;2024-03-22T12:53:47;15.63;;;9.50;;
1128;SDS011;553;51.038;7.216;2024-03-22T12:56:13;17.57;;;10.27;;
1128;SDS011;553;51.038;7.216;2024-03-22T12:58:39;13.80;;;9.50;;
1128;SDS011;553;51.038;7.216;2024-03-22T13:01:05;16.30;;;10.23;;
1128;SDS011;553;51.038;7.216;2024-03-22T13:03:34;13.20;;;10.10;;
1128;SDS011;553;51.038;7.216;2024-03-22T13:06:00;15.03;;;10.03;;
1128;SDS011;553;51.038;7.216;2024-03-22T13:08:26;17.83;;;9.30;;
1128;SDS011;553;51.038;7.216;2024-03-22T13:10:51;12.10;;;9.60;;
1128;SDS011;553;51.038;7.216;2024-03-22T13:13:17;14.00;;;8.17;;
1128;SDS011;553;51.038;7.216;2024-03-22T13:15:44;14.13;;;8.80;;
1128;SDS011;553;51.038;7.216;2024-03-22T13:18:10;11.03;;;8.43;;
1128;SDS011;553;51.038;7.216;2024-03-22T13:20:36;14.00;;;10.33;;
1128;SDS011;553;51.038;7.216;2024-03-22T13:23:02;15.67;;;9.50;;
1128;SDS011;553;51.038;7.216;2024-03-22T13:25:28;14.43;;;9.87;;
1128;SDS011;553;51.038;7.216;2024-03-22T13:27:54;14.50;;;10.33;;
1128;SDS011;553;51.038;7.216;2024-03-22T13:30:20;17.07;;;9.10;;
1128;SDS011;553;51.038;7.216;2024-03-22T13:32:47;14.97;;;9.97;;
1128;SDS011;553;51.038;7.216;2024-03-22T13:35:13;16.00;;;10.87;;
1128;SDS011;553;51.038;7.216;2024-03-22T13:37:40;13.80;;;10.10;;
1128;SDS011;553;51.038;7.216;2024-03-22T13:40:07;17.50;;;10.67;;
1128;SDS011;553;51.038;7.216;2024-03-22T13:42:33;20.93;;;11.07;;
1128;SDS011;553;51.038;7.216;2024-03-22T13:44:59;13.33;;;10.63;;
1128;SDS011;553;51.038;7.216;2024-03-22T13:47:26;13.37;;;10.80;;
1128;SDS011;553;51.038;7.216;2024-03-22T13:49:55;16.10;;;10.63;;
1128;SDS011;553;51.038;7.216;2024-03-22T13:52:21;14.90;;;9.70;;
1128;SDS011;553;51.038;7.216;2024-03-22T13:54:47;15.40;;;9.47;;
1128;SDS011;553;51.038;7.216;2024-03-22T13:57:13;16.73;;;9.70;;
1128;SDS011;553;51.038;7.216;2024-03-22T13:59:39;12.90;;;9.47;;
1128;SDS011;553;51.038;7.216;2024-03-22T14:02:07;13.10;;;8.83;;
1128;SDS011;553;51.038;7.216;2024-03-22T14:04:34;13.97;;;9.13;;
1128;SDS011;553;51.038;7.216;2024-03-22T14:07:00;15.43;;;10.47;;
1128;SDS011;553;51.038;7.216;2024-03-22T14:09:33;16.17;;;10.47;;
1128;SDS011;553;51.038;7.216;2024-03-22T14:11:59;15.83;;;10.77;;
1128;SDS011;553;51.038;7.216;2024-03-22T14:14:26;17.33;;;10.67;;
1128;SDS011;553;51.038;7.216;2024-03-22T14:16:52;13.00;;;10.23;;
1128;SDS011;553;51.038;7.216;2024-03-22T14:19:18;12.77;;;9.63;;
1128;SDS011;553;51.038;7.216;2024-03-22T14:21:44;17.60;;;9.60;;
1128;SDS011;553;51.038;7.216;2024-03-22T14:24:11;13.40;;;9.60;;
1128;SDS011;553;51.038;7.216;2024-03-22T14:26:38;16.73;;;10.20;;
1128;SDS011;553;51.038;7.216;2024-03-22T14:29:11;14.20;;;10.77;;
1128;SDS011;553;51.038;7.216;2024-03-22T14:31:37;13.63;;;10.60;;
1128;SDS011;553;51.038;7.216;2024-03-22T14:34:07;14.33;;;10.40;;
1128;SDS011;553;51.038;7.216;2024-03-22T14:36:33;18.83;;;12.27;;
1128;SDS011;553;51.038;7.216;2024-03-22T14:38:59;17.40;;;12.13;;
1128;SDS011;553;51.038;7.216;2024-03-22T14:41:25;15.47;;;10.93;;
1128;SDS011;553;51.038;7.216;2024-03-22T14:43:51;19.27;;;12.00;;
1128;SDS011;553;51.038;7.216;2024-03-22T14:46:17;17.57;;;11.97;;
1128;SDS011;553;51.038;7.216;2024-03-22T14:48:50;19.80;;;13.83;;
1128;SDS011;553;51.038;7.216;2024-03-22T14:51:15;17.53;;;12.20;;
1128;SDS011;553;51.038;7.216;2024-03-22T14:53:41;20.57;;;13.20;;
1128;SDS011;553;51.038;7.216;2024-03-22T14:56:07;21.40;;;13.63;;
1128;SDS011;553;51.038;7.216;2024-03-22T14:58:36;21.93;;;13.27;;
1128;SDS011;553;51.038;7.216;2024-03-22T15:01:03;22.40;;;13.77;;